createdAt,value
2022-08-17T00:00:43.957Z,12.70
2022-08-17T00:03:19.682Z,11.30
2022-08-17T00:06:12.337Z,13.20
2022-08-17T00:09:01.741Z,9.90
2022-08-17T00:11:38.707Z,12.70
2022-08-17T00:14:19.975Z,13.10
2022-08-17T00:16:57.247Z,16.60
2022-08-17T00:19:27.038Z,13.20
2022-08-17T00:22:33.811Z,12.10
2022-08-17T00:24:49.226Z,14.30
2022-08-17T00:27:18.733Z,14.20
2022-08-17T00:29:47.348Z,13.20
2022-08-17T00:33:14.482Z,16.80
2022-08-17T00:35:08.250Z,13.70
2022-08-17T00:37:36.905Z,13.90
2022-08-17T00:40:07.220Z,18.10
2022-08-17T00:42:36.368Z,15.20
2022-08-17T00:45:08.407Z,11.70
2022-08-17T00:47:37.071Z,13.30
2022-08-17T00:50:09.776Z,13.60
2022-08-17T00:52:48.153Z,14.70
2022-08-17T00:55:17.860Z,12.00
2022-08-17T00:57:55.216Z,12.30
2022-08-17T01:00:40.683Z,13.50
2022-08-17T01:03:19.776Z,11.60
2022-08-17T01:05:52.137Z,11.00
2022-08-17T01:08:26.297Z,15.20
2022-08-17T01:11:01.858Z,12.00
2022-08-17T01:13:43.177Z,11.80
2022-08-17T01:16:22.323Z,14.30
2022-08-17T01:18:55.649Z,12.10
2022-08-17T01:21:52.158Z,14.50
2022-08-17T01:24:21.365Z,14.80
2022-08-17T01:26:50.594Z,13.50
2022-08-17T01:29:22.523Z,16.60
2022-08-17T01:31:59.080Z,14.90
2022-08-17T01:34:42.429Z,14.50
2022-08-17T01:37:15.117Z,22.30
2022-08-17T01:39:56.365Z,17.70
2022-08-17T01:42:36.853Z,13.30
2022-08-17T01:45:13.023Z,18.90
2022-08-17T01:47:42.321Z,15.10
2022-08-17T01:50:20.020Z,19.60
2022-08-17T01:52:54.373Z,13.80
2022-08-17T01:55:32.344Z,15.90
2022-08-17T01:58:02.144Z,21.50
2022-08-17T02:01:00.279Z,15.80
2022-08-17T02:03:23.115Z,14.60
2022-08-17T02:05:53.690Z,18.10
2022-08-17T02:08:36.984Z,16.40
2022-08-17T02:11:16.935Z,12.20
2022-08-17T02:13:48.645Z,16.70
2022-08-17T02:16:26.501Z,17.90
2022-08-17T02:19:14.382Z,14.70
2022-08-17T02:21:46.072Z,16.70
2022-08-17T02:24:59.842Z,16.80
2022-08-17T02:27:18.294Z,14.00
2022-08-17T02:29:47.013Z,15.80
2022-08-17T02:32:28.107Z,16.10
2022-08-17T02:34:58.981Z,16.10
2022-08-17T02:37:32.091Z,15.10
2022-08-17T02:40:00.947Z,17.00
2022-08-17T02:42:41.091Z,16.80
2022-08-17T02:45:18.149Z,14.80
2022-08-17T02:47:47.884Z,19.80
2022-08-17T02:50:20.809Z,16.50
2022-08-17T02:55:35.546Z,23.00
2022-08-17T02:58:05.283Z,19.80
2022-08-17T03:00:41.273Z,18.10
2022-08-17T03:03:13.898Z,27.10
2022-08-17T03:05:43.214Z,16.90
2022-08-17T03:08:13.383Z,16.70
2022-08-17T03:10:44.415Z,16.50
2022-08-17T03:13:14.941Z,18.10
2022-08-17T03:15:45.663Z,15.00
2022-08-17T03:18:24.190Z,16.60
2022-08-17T03:21:01.637Z,22.90
2022-08-17T03:23:32.571Z,17.90
2022-08-17T03:26:01.575Z,18.70
2022-08-17T03:28:31.062Z,19.90
2022-08-17T03:30:59.788Z,16.30
2022-08-17T03:33:28.373Z,17.20
2022-08-17T03:35:57.431Z,21.50
2022-08-17T03:38:26.710Z,22.40
2022-08-17T03:40:59.478Z,16.90
2022-08-17T03:43:31.756Z,18.10
2022-08-17T03:46:34.190Z,18.90
2022-08-17T03:49:25.940Z,16.50
2022-08-17T03:52:15.052Z,19.70
2022-08-17T03:55:03.444Z,15.90
2022-08-17T03:57:32.562Z,22.40
2022-08-17T04:00:01.374Z,17.60
2022-08-17T04:02:42.987Z,20.40
2022-08-17T04:05:11.623Z,17.60
2022-08-17T04:07:40.373Z,18.70
2022-08-17T04:10:09.267Z,20.30
2022-08-17T04:12:53.143Z,17.00
2022-08-17T04:15:23.260Z,15.50
2022-08-17T04:17:53.266Z,21.50
2022-08-17T04:20:24.526Z,17.50
2022-08-17T04:23:10.018Z,18.90
2022-08-17T04:25:43.744Z,26.10
2022-08-17T04:28:16.163Z,57.10
2022-08-17T04:33:25.846Z,31.40
2022-08-17T04:35:59.383Z,33.30
2022-08-17T04:38:35.664Z,22.00
2022-08-17T04:41:24.085Z,23.30
2022-08-17T04:43:58.694Z,23.20
2022-08-17T04:46:36.358Z,19.10
2022-08-17T04:49:11.716Z,20.20
2022-08-17T04:51:54.705Z,18.90
2022-08-17T04:54:25.578Z,16.10
2022-08-17T04:56:54.287Z,19.50
2022-08-17T04:59:23.452Z,19.60
2022-08-17T05:01:52.811Z,18.30
2022-08-17T05:04:33.802Z,18.10
2022-08-17T05:07:04.943Z,15.10
2022-08-17T05:09:33.697Z,14.00
2022-08-17T05:12:03.349Z,19.60
2022-08-17T05:14:33.650Z,21.70
2022-08-17T05:17:07.234Z,19.20
2022-08-17T05:19:38.277Z,19.20
2022-08-17T05:22:07.056Z,25.40
2022-08-17T05:24:40.731Z,18.20
2022-08-17T05:27:15.897Z,18.30
2022-08-17T05:29:48.108Z,17.30
2022-08-17T05:32:39.480Z,17.60
2022-08-17T05:35:06.811Z,18.00
2022-08-17T05:37:35.506Z,13.30
2022-08-17T05:40:05.250Z,16.00
2022-08-17T05:42:33.964Z,16.70
2022-08-17T05:45:02.572Z,18.00
2022-08-17T05:47:31.583Z,14.50
2022-08-17T05:50:02.147Z,13.90
2022-08-17T05:53:18.590Z,12.90
2022-08-17T05:56:29.354Z,19.60
2022-08-17T05:59:17.308Z,16.40
2022-08-17T06:02:05.729Z,12.40
2022-08-17T06:05:18.922Z,14.30
2022-08-17T06:08:02.878Z,13.20
2022-08-17T06:10:49.559Z,16.60
2022-08-17T06:13:42.184Z,11.70
2022-08-17T06:16:33.152Z,14.30
2022-08-17T06:19:23.615Z,13.90
2022-08-17T06:21:55.916Z,14.70
2022-08-17T06:24:44.216Z,10.20
2022-08-17T06:27:18.975Z,10.40
2022-08-17T06:30:01.304Z,10.80
2022-08-17T06:32:30.158Z,11.20
2022-08-17T06:35:01.628Z,15.60
2022-08-17T06:38:36.891Z,19.90
2022-08-17T06:41:54.950Z,11.20
2022-08-17T06:44:50.057Z,12.30
2022-08-17T06:48:13.383Z,10.10
2022-08-17T06:50:53.673Z,8.20
2022-08-17T06:53:29.553Z,9.90
2022-08-17T06:56:25.805Z,12.70
2022-08-17T07:01:23.219Z,6.90
2022-08-17T07:04:19.375Z,11.10
2022-08-17T07:07:27.200Z,11.60
2022-08-17T07:10:00.428Z,11.10
2022-08-17T07:12:38.669Z,12.60
2022-08-17T07:15:26.380Z,9.60
2022-08-17T07:17:55.962Z,9.80
2022-08-17T07:20:25.460Z,11.80
2022-08-17T07:23:34.793Z,10.10
2022-08-17T07:26:09.549Z,11.40
2022-08-17T07:28:40.796Z,12.10
2022-08-17T07:31:09.666Z,9.70
2022-08-17T07:33:39.653Z,8.90
2022-08-17T07:36:30.066Z,9.10
2022-08-17T07:38:59.105Z,12.60
2022-08-17T07:41:53.334Z,14.80
2022-08-17T07:44:21.066Z,11.20
2022-08-17T07:47:11.869Z,10.20
2022-08-17T07:49:46.573Z,10.60
2022-08-17T07:52:51.167Z,12.90
2022-08-17T07:55:35.637Z,13.70
2022-08-17T07:58:04.292Z,13.20
2022-08-17T08:00:34.025Z,13.60
2022-08-17T08:03:16.836Z,12.20
2022-08-17T08:05:56.568Z,12.90
2022-08-17T08:08:37.903Z,12.30
2022-08-17T08:11:18.098Z,11.20
2022-08-17T08:13:46.904Z,10.60
2022-08-17T08:16:26.259Z,12.50
2022-08-17T08:19:02.147Z,13.70
2022-08-17T08:21:52.284Z,12.30
2022-08-17T08:24:32.929Z,11.70
2022-08-17T08:27:41.426Z,12.00
2022-08-17T08:30:19.598Z,10.40
2022-08-17T08:32:57.682Z,11.80
2022-08-17T08:39:09.344Z,12.70
2022-08-17T08:46:07.084Z,12.60
2022-08-17T08:49:12.070Z,11.30
2022-08-17T08:51:58.067Z,9.80
2022-08-17T08:54:48.935Z,14.10
2022-08-17T08:57:41.727Z,11.30
2022-08-17T09:00:20.799Z,12.00
2022-08-17T09:19:00.247Z,12.50
2022-08-17T09:21:18.084Z,11.20
2022-08-17T09:24:26.623Z,11.70
2022-08-17T09:27:19.068Z,11.20
2022-08-17T09:30:01.048Z,12.90
2022-08-17T09:32:42.976Z,14.50
2022-08-17T09:35:37.470Z,13.10
2022-08-17T09:38:15.191Z,12.00
2022-08-17T09:41:16.401Z,13.00
2022-08-17T09:44:27.149Z,12.20
2022-08-17T09:47:10.668Z,10.70
2022-08-17T09:50:08.978Z,10.60
2022-08-17T09:52:38.137Z,12.70
2022-08-17T09:55:07.311Z,11.70
2022-08-17T09:57:49.500Z,10.20
2022-08-17T10:00:32.800Z,9.90
2022-08-17T10:03:28.485Z,10.60
2022-08-17T10:06:06.575Z,10.20
2022-08-17T10:09:13.497Z,10.10
2022-08-17T10:12:16.730Z,10.10
2022-08-17T10:15:11.523Z,13.10
2022-08-17T10:17:56.634Z,12.90
2022-08-17T10:20:45.474Z,10.50
2022-08-17T10:23:45.207Z,9.90
2022-08-17T10:26:27.279Z,9.20
2022-08-17T10:29:20.400Z,9.90
2022-08-17T10:32:05.004Z,12.40
2022-08-17T10:35:04.366Z,10.00
2022-08-17T10:37:56.909Z,9.60
2022-08-17T10:40:37.226Z,9.20
2022-08-17T10:43:36.542Z,9.20
2022-08-17T10:46:52.554Z,13.10
2022-08-17T10:49:21.529Z,9.50
2022-08-17T10:51:57.244Z,9.20
2022-08-17T10:54:25.748Z,10.70
2022-08-17T10:56:57.082Z,10.40
2022-08-17T10:59:37.732Z,8.40
2022-08-17T11:02:39.222Z,9.00
2022-08-17T11:05:46.836Z,12.10
2022-08-17T11:09:01.165Z,11.40
2022-08-17T11:12:07.472Z,10.40
2022-08-17T11:14:48.907Z,8.30
2022-08-17T11:17:35.506Z,8.80
2022-08-17T11:24:34.730Z,9.00
2022-08-17T11:27:05.985Z,7.30
2022-08-17T11:30:01.853Z,8.10
2022-08-17T11:32:48.682Z,9.10
2022-08-17T11:35:21.798Z,8.00
2022-08-17T11:38:03.370Z,8.50
2022-08-17T11:40:38.817Z,10.90
2022-08-17T11:43:43.700Z,9.10
2022-08-17T11:47:17.090Z,10.50
2022-08-17T11:50:36.716Z,9.50
2022-08-17T11:53:06.659Z,8.10
2022-08-17T11:55:39.407Z,8.00
2022-08-17T11:58:44.712Z,8.80
2022-08-17T12:01:22.857Z,10.40
2022-08-17T12:03:58.053Z,9.40
2022-08-17T12:06:51.123Z,8.70
2022-08-17T12:11:02.073Z,10.10
2022-08-17T12:19:50.985Z,6.60
2022-08-17T12:24:27.752Z,8.00
2022-08-17T12:27:46.204Z,6.80
2022-08-17T12:30:32.879Z,9.50
2022-08-17T12:33:01.598Z,6.60
2022-08-17T12:35:36.831Z,11.20
2022-08-17T12:44:04.080Z,6.40
2022-08-17T12:55:41.028Z,7.30
2022-08-17T12:58:14.711Z,7.10
2022-08-17T13:01:17.418Z,5.90
2022-08-17T13:14:11.678Z,5.00
2022-08-17T13:16:40.345Z,4.80
2022-08-17T13:19:15.459Z,4.40
2022-08-17T13:22:04.120Z,4.50
2022-08-17T13:24:53.322Z,4.60
2022-08-17T13:27:26.022Z,5.00
2022-08-17T13:30:00.320Z,5.70
2022-08-17T13:32:48.279Z,5.20
2022-08-17T13:35:45.884Z,6.10
2022-08-17T13:41:38.094Z,4.40
2022-08-17T13:44:37.137Z,5.70
2022-08-17T13:47:27.142Z,5.00
2022-08-17T13:49:56.346Z,5.60
2022-08-17T13:52:39.483Z,7.30
2022-08-17T13:55:32.282Z,5.10
2022-08-17T13:58:06.758Z,7.10
2022-08-17T14:00:36.977Z,5.60
2022-08-17T14:03:06.006Z,6.20
2022-08-17T14:05:37.425Z,4.40
2022-08-17T14:08:07.326Z,5.60
2022-08-17T14:10:36.849Z,4.40
2022-08-17T14:13:07.300Z,4.70
2022-08-17T14:15:55.725Z,4.40
2022-08-17T14:18:55.563Z,6.10
2022-08-17T14:21:14.085Z,4.30
2022-08-17T14:23:49.955Z,5.50
2022-08-17T14:26:26.834Z,5.90
2022-08-17T14:28:56.226Z,5.50
2022-08-17T14:33:34.175Z,7.20
2022-08-17T14:36:03.356Z,6.60
2022-08-17T14:38:32.715Z,5.10
2022-08-17T14:41:02.531Z,6.60
2022-08-17T14:43:35.516Z,5.90
2022-08-17T14:46:04.329Z,6.80
2022-08-17T14:48:35.186Z,5.90
2022-08-17T14:51:05.148Z,7.00
2022-08-17T14:53:43.407Z,5.60
2022-08-17T14:56:13.581Z,5.30
2022-08-17T14:58:42.789Z,6.00
2022-08-17T15:01:13.561Z,7.80
2022-08-17T15:03:42.976Z,6.20
2022-08-17T15:06:14.909Z,5.70
2022-08-17T15:08:45.151Z,5.60
2022-08-17T15:11:14.959Z,5.50
2022-08-17T15:13:52.480Z,6.40
2022-08-17T15:16:23.514Z,5.40
2022-08-17T15:18:52.974Z,6.80
2022-08-17T15:21:22.876Z,5.80
2022-08-17T15:23:51.619Z,7.40
2022-08-17T15:26:25.635Z,6.80
2022-08-17T15:28:56.347Z,7.30
2022-08-17T15:31:31.901Z,6.30
2022-08-17T15:34:01.324Z,7.90
2022-08-17T15:36:32.337Z,8.30
2022-08-17T15:39:01.057Z,8.10
2022-08-17T15:41:29.834Z,8.00
2022-08-17T15:43:58.551Z,6.90
2022-08-17T15:46:27.599Z,11.10
2022-08-17T15:48:59.461Z,8.00
2022-08-17T15:51:32.057Z,6.20
2022-08-17T15:54:19.046Z,8.10
2022-08-17T15:56:51.550Z,8.20
2022-08-17T15:59:20.387Z,16.60
2022-08-17T16:03:13.445Z,11.60
2022-08-17T16:04:40.339Z,10.60
2022-08-17T16:07:12.969Z,6.20
2022-08-17T16:09:42.230Z,9.80
2022-08-17T16:12:21.417Z,13.20
2022-08-17T16:14:51.988Z,9.10
2022-08-17T16:17:38.838Z,11.30
2022-08-17T16:20:20.472Z,15.70
2022-08-17T16:22:51.217Z,12.30
2022-08-17T16:25:38.865Z,15.60
2022-08-17T16:28:18.916Z,16.00
2022-08-17T16:30:47.625Z,15.40
2022-08-17T16:33:16.988Z,20.80
2022-08-17T16:35:45.607Z,17.90
2022-08-17T16:38:14.320Z,14.10
2022-08-17T16:40:42.959Z,11.80
2022-08-17T16:43:12.467Z,14.60
2022-08-17T16:45:42.631Z,10.50
2022-08-17T16:48:12.264Z,11.60
2022-08-17T16:50:41.039Z,12.20
2022-08-17T16:53:17.394Z,12.80
2022-08-17T16:55:48.995Z,15.00
2022-08-17T16:58:18.121Z,14.20
2022-08-17T17:00:48.946Z,18.90
2022-08-17T17:03:25.122Z,15.00
2022-08-17T17:05:59.920Z,16.60
2022-08-17T17:08:46.947Z,14.30
2022-08-17T17:11:44.406Z,13.30
2022-08-17T17:14:43.301Z,15.70
2022-08-17T17:17:24.327Z,11.70
2022-08-17T17:20:22.971Z,11.20
2022-08-17T17:23:23.216Z,12.20
2022-08-17T17:26:25.015Z,13.10
2022-08-17T17:29:09.330Z,13.10
2022-08-17T17:31:51.457Z,12.80
2022-08-17T17:34:21.225Z,12.90
2022-08-17T17:36:58.537Z,11.10
2022-08-17T17:39:46.232Z,14.00
2022-08-17T17:42:22.075Z,12.70
2022-08-17T17:45:26.277Z,14.50
2022-08-17T17:47:55.005Z,13.20
2022-08-17T17:50:38.377Z,13.50
2022-08-17T17:53:26.097Z,13.70
2022-08-17T17:56:40.522Z,17.20
2022-08-17T17:59:27.945Z,13.30
2022-08-17T18:02:51.967Z,13.90
2022-08-17T18:05:51.660Z,12.90
2022-08-17T18:08:38.267Z,14.50
2022-08-17T18:11:37.944Z,19.20
2022-08-17T18:14:45.959Z,16.00
2022-08-17T18:17:14.942Z,14.40
2022-08-17T18:19:43.540Z,16.20
2022-08-17T18:22:31.567Z,15.50
2022-08-17T18:25:00.176Z,14.10
2022-08-17T18:27:39.283Z,17.20
2022-08-17T18:30:14.097Z,13.10
2022-08-17T18:32:46.688Z,15.60
2022-08-17T18:35:15.242Z,15.50
2022-08-17T18:37:54.119Z,16.00
2022-08-17T18:40:33.563Z,14.90
2022-08-17T18:43:44.495Z,17.80
2022-08-17T18:46:29.714Z,16.00
2022-08-17T18:49:08.819Z,13.90
2022-08-17T18:51:43.169Z,15.90
2022-08-17T18:54:22.013Z,16.10
2022-08-17T18:56:59.397Z,17.80
2022-08-17T18:59:29.977Z,15.80
2022-08-17T19:01:59.343Z,20.60
2022-08-17T19:04:59.248Z,18.20
2022-08-17T19:07:38.349Z,17.50
2022-08-17T19:10:29.060Z,16.40
2022-08-17T19:13:23.921Z,16.60
2022-08-17T19:16:11.576Z,16.00
2022-08-17T19:18:56.945Z,18.60
2022-08-17T19:21:45.921Z,17.90
2022-08-17T19:24:23.147Z,17.80
2022-08-17T19:27:25.223Z,17.90
2022-08-17T19:30:12.471Z,17.40
2022-08-17T19:32:41.162Z,15.50
2022-08-17T19:35:17.166Z,19.30
2022-08-17T19:38:13.252Z,45.10
2022-08-17T19:41:37.473Z,15.60
2022-08-17T19:44:23.296Z,17.50
2022-08-17T19:47:43.787Z,14.80
2022-08-17T19:50:50.090Z,19.80
2022-08-17T19:54:04.473Z,17.80
2022-08-17T19:56:56.927Z,17.40
2022-08-17T20:00:02.510Z,18.70
2022-08-17T20:03:26.919Z,19.60
2022-08-17T20:07:19.549Z,18.80
2022-08-17T20:27:54.821Z,18.40
2022-08-17T20:30:56.505Z,20.60
2022-08-17T20:33:37.061Z,22.60
2022-08-17T20:36:20.548Z,19.10
2022-08-17T20:39:40.357Z,22.40
2022-08-17T20:46:11.930Z,18.90
2022-08-17T20:49:55.728Z,20.10
2022-08-17T20:52:55.289Z,26.90
2022-08-17T20:55:51.671Z,20.30
2022-08-17T20:58:31.129Z,19.00
2022-08-17T21:01:34.833Z,18.60
2022-08-17T21:04:09.283Z,20.70
2022-08-17T21:10:37.753Z,23.90
2022-08-17T21:13:13.803Z,22.30
2022-08-17T21:15:56.970Z,23.50
2022-08-17T21:18:39.232Z,18.60
2022-08-17T21:21:47.438Z,18.00
2022-08-17T21:24:47.912Z,19.50
2022-08-17T21:27:55.349Z,19.60
2022-08-17T21:30:28.642Z,18.90
2022-08-17T21:33:25.289Z,19.40
2022-08-17T21:35:59.575Z,23.00
2022-08-17T21:38:49.117Z,20.50
2022-08-17T21:41:29.133Z,26.20
2022-08-17T21:44:18.945Z,20.90
2022-08-17T21:46:50.832Z,20.50
2022-08-17T21:49:27.409Z,21.70
2022-08-17T21:51:59.234Z,23.50
2022-08-17T21:54:34.891Z,22.70
2022-08-17T21:57:16.279Z,23.40
2022-08-17T21:59:45.281Z,19.90
2022-08-17T22:02:43.758Z,20.20
2022-08-17T22:05:15.504Z,20.90
2022-08-17T22:08:21.824Z,22.10
2022-08-17T22:11:04.477Z,22.10
2022-08-17T22:13:38.822Z,21.50
2022-08-17T22:16:29.049Z,22.80
2022-08-17T22:19:05.266Z,25.20
2022-08-17T22:21:34.139Z,23.10
2022-08-17T22:24:18.227Z,23.70
2022-08-17T22:27:11.797Z,22.10
2022-08-17T22:30:22.466Z,21.60
2022-08-17T22:32:51.636Z,22.40
2022-08-17T22:35:43.701Z,24.30
2022-08-17T22:38:21.420Z,24.70
2022-08-17T22:40:58.143Z,26.50
2022-08-17T22:43:31.839Z,25.80
2022-08-17T22:46:09.249Z,24.00
2022-08-17T22:48:46.799Z,27.50
2022-08-17T22:51:23.551Z,25.10
2022-08-17T22:54:18.770Z,22.30
2022-08-17T22:57:19.960Z,28.60
2022-08-17T22:59:55.394Z,27.50
2022-08-17T23:02:28.970Z,27.90
2022-08-17T23:05:10.421Z,28.00
2022-08-17T23:07:45.170Z,26.70
2022-08-17T23:10:15.883Z,27.80
2022-08-17T23:12:44.619Z,26.50
2022-08-17T23:15:24.273Z,27.30
2022-08-17T23:17:55.817Z,28.30
2022-08-17T23:20:24.627Z,29.90
2022-08-17T23:22:53.660Z,25.30
2022-08-17T23:25:28.486Z,25.50
2022-08-17T23:28:01.756Z,27.80
2022-08-17T23:30:44.249Z,29.00
2022-08-17T23:33:39.329Z,25.70
2022-08-17T23:36:15.301Z,26.00
2022-08-17T23:38:47.105Z,27.60
2022-08-17T23:41:20.446Z,27.90
2022-08-17T23:43:53.462Z,25.00
2022-08-17T23:46:25.323Z,23.70
2022-08-17T23:48:54.388Z,27.10
2022-08-17T23:51:28.776Z,25.90
2022-08-17T23:54:11.823Z,25.30
2022-08-17T23:56:47.043Z,25.60
2022-08-17T23:59:18.835Z,23.90
